createdAt,value
2022-08-29T00:00:23.763Z,21.39
2022-08-29T00:02:56.115Z,21.50
2022-08-29T00:05:27.037Z,21.49
2022-08-29T00:08:04.283Z,21.28
2022-08-29T00:10:33.751Z,21.50
2022-08-29T00:13:01.966Z,21.47
2022-08-29T00:15:31.473Z,21.52
2022-08-29T00:18:09.861Z,21.64
2022-08-29T00:20:39.376Z,21.55
2022-08-29T00:23:09.010Z,21.44
2022-08-29T00:25:40.754Z,21.19
2022-08-29T00:28:08.838Z,21.39
2022-08-29T00:30:38.384Z,21.30
2022-08-29T00:33:06.717Z,21.35
2022-08-29T00:35:38.487Z,21.50
2022-08-29T00:38:16.600Z,21.43
2022-08-29T00:40:51.999Z,21.31
2022-08-29T00:43:24.731Z,21.27
2022-08-29T00:46:13.060Z,21.36
2022-08-29T00:48:43.434Z,21.30
2022-08-29T00:51:22.669Z,21.22
2022-08-29T00:53:58.536Z,21.26
2022-08-29T00:56:27.925Z,21.26
2022-08-29T00:59:01.873Z,21.07
2022-08-29T01:01:30.969Z,20.98
2022-08-29T01:04:00.501Z,21.02
2022-08-29T01:06:29.816Z,21.19
2022-08-29T01:08:59.949Z,20.99
2022-08-29T01:11:48.031Z,21.07
2022-08-29T01:14:18.561Z,20.95
2022-08-29T01:16:50.028Z,21.03
2022-08-29T01:19:24.805Z,20.91
2022-08-29T01:22:03.491Z,20.98
2022-08-29T01:24:38.167Z,21.11
2022-08-29T01:27:06.785Z,21.07
2022-08-29T01:29:35.655Z,21.21
2022-08-29T01:32:04.385Z,21.18
2022-08-29T01:34:33.037Z,21.34
2022-08-29T01:37:03.142Z,21.22
2022-08-29T01:39:37.523Z,21.22
2022-08-29T01:42:10.619Z,21.11
2022-08-29T01:44:42.517Z,21.22
2022-08-29T01:47:11.830Z,21.21
2022-08-29T01:49:41.258Z,21.16
2022-08-29T01:52:10.174Z,21.17
2022-08-29T01:54:41.413Z,21.14
2022-08-29T01:57:13.146Z,21.13
2022-08-29T01:59:42.266Z,21.03
2022-08-29T02:02:12.918Z,21.23
2022-08-29T02:04:42.759Z,20.97
2022-08-29T02:07:12.875Z,21.12
2022-08-29T02:09:45.975Z,21.14
2022-08-29T02:12:15.694Z,20.97
2022-08-29T02:14:49.334Z,21.10
2022-08-29T02:17:17.732Z,21.12
2022-08-29T02:19:46.122Z,21.04
2022-08-29T02:22:14.830Z,20.85
2022-08-29T02:24:44.625Z,20.91
2022-08-29T02:27:14.220Z,20.82
2022-08-29T02:29:43.720Z,21.00
2022-08-29T02:32:14.850Z,20.81
2022-08-29T02:34:48.540Z,21.03
2022-08-29T02:37:17.888Z,21.10
2022-08-29T02:39:50.902Z,21.18
2022-08-29T02:42:20.180Z,20.92
2022-08-29T02:44:48.804Z,21.05
2022-08-29T02:47:16.974Z,21.12
2022-08-29T02:49:45.767Z,21.13
2022-08-29T02:52:14.582Z,20.63
2022-08-29T02:54:43.763Z,20.87
2022-08-29T02:57:13.264Z,21.06
2022-08-29T02:59:41.847Z,21.14
2022-08-29T03:02:11.328Z,21.08
2022-08-29T03:04:39.787Z,20.73
2022-08-29T03:07:09.446Z,20.82
2022-08-29T03:09:37.668Z,20.97
2022-08-29T03:12:05.984Z,20.92
2022-08-29T03:14:36.888Z,20.78
2022-08-29T03:17:05.312Z,20.92
2022-08-29T03:19:37.545Z,21.03
2022-08-29T03:22:05.731Z,20.78
2022-08-29T03:24:35.680Z,20.77
2022-08-29T03:27:03.914Z,20.70
2022-08-29T03:29:34.184Z,20.80
2022-08-29T03:32:13.497Z,20.91
2022-08-29T03:34:43.164Z,20.87
2022-08-29T03:37:12.415Z,20.88
2022-08-29T03:39:40.968Z,21.01
2022-08-29T03:42:09.718Z,21.06
2022-08-29T03:44:40.865Z,21.05
2022-08-29T03:47:11.959Z,20.98
2022-08-29T03:49:41.163Z,20.93
2022-08-29T03:52:11.400Z,20.93
2022-08-29T03:54:40.034Z,20.98
2022-08-29T03:57:09.493Z,21.03
2022-08-29T03:59:37.881Z,20.81
2022-08-29T04:02:07.220Z,20.66
2022-08-29T04:04:57.209Z,20.80
2022-08-29T04:07:26.398Z,20.97
2022-08-29T04:09:54.887Z,20.98
2022-08-29T04:12:28.859Z,20.88
2022-08-29T04:14:57.112Z,20.89
2022-08-29T04:17:25.307Z,20.92
2022-08-29T04:19:55.280Z,21.03
2022-08-29T04:22:23.399Z,20.91
2022-08-29T04:24:52.641Z,20.88
2022-08-29T04:27:20.907Z,20.95
2022-08-29T04:29:50.143Z,20.77
2022-08-29T04:32:20.978Z,20.60
2022-08-29T04:34:50.745Z,20.87
2022-08-29T04:37:20.333Z,20.93
2022-08-29T04:39:49.441Z,20.89
2022-08-29T04:42:20.170Z,20.93
2022-08-29T04:44:51.335Z,21.03
2022-08-29T04:47:21.725Z,21.10
2022-08-29T04:49:56.603Z,20.95
2022-08-29T04:52:28.875Z,21.09
2022-08-29T04:54:58.505Z,20.95
2022-08-29T04:57:29.322Z,21.11
2022-08-29T05:00:00.010Z,21.19
2022-08-29T05:02:30.175Z,21.18
2022-08-29T05:04:58.398Z,20.98
2022-08-29T05:07:29.417Z,20.97
2022-08-29T05:10:00.341Z,21.07
2022-08-29T05:12:30.476Z,20.97
2022-08-29T05:14:59.149Z,20.94
2022-08-29T05:17:29.529Z,21.20
2022-08-29T05:19:57.745Z,21.14
2022-08-29T05:22:25.989Z,21.14
2022-08-29T05:24:58.219Z,20.91
2022-08-29T05:27:26.970Z,21.21
2022-08-29T05:29:56.772Z,21.11
2022-08-29T05:32:24.842Z,21.04
2022-08-29T05:34:55.995Z,21.03
2022-08-29T05:37:25.051Z,20.80
2022-08-29T05:39:53.243Z,20.91
2022-08-29T05:42:23.494Z,20.91
2022-08-29T05:44:54.293Z,20.93
2022-08-29T05:47:22.581Z,20.91
2022-08-29T05:49:52.246Z,21.01
2022-08-29T05:52:22.039Z,21.01
2022-08-29T05:54:50.529Z,21.00
2022-08-29T05:57:25.873Z,21.13
2022-08-29T05:59:56.285Z,20.89
2022-08-29T06:02:25.430Z,21.04
2022-08-29T06:04:55.161Z,21.08
2022-08-29T06:07:25.429Z,21.15
2022-08-29T06:09:55.020Z,21.22
2022-08-29T06:12:34.118Z,21.25
2022-08-29T06:15:03.731Z,21.13
2022-08-29T06:17:31.911Z,21.26
2022-08-29T06:20:03.391Z,21.06
2022-08-29T06:22:32.146Z,21.26
2022-08-29T06:25:11.847Z,21.20
2022-08-29T06:27:59.548Z,21.04
2022-08-29T06:30:32.721Z,21.11
2022-08-29T06:33:01.819Z,21.22
2022-08-29T06:35:31.126Z,21.22
2022-08-29T06:37:59.379Z,21.38
2022-08-29T06:40:38.281Z,21.22
2022-08-29T06:43:07.893Z,21.25
2022-08-29T06:45:44.111Z,21.15
2022-08-29T06:48:13.974Z,21.23
2022-08-29T06:50:45.668Z,21.10
2022-08-29T06:53:26.837Z,21.21
2022-08-29T06:56:06.727Z,21.37
2022-08-29T06:58:42.014Z,21.37
2022-08-29T07:01:13.494Z,21.32
2022-08-29T07:03:42.581Z,21.27
2022-08-29T07:06:18.588Z,21.34
2022-08-29T07:08:54.915Z,21.41
2022-08-29T07:11:26.025Z,21.23
2022-08-29T07:14:07.741Z,21.60
2022-08-29T07:16:38.946Z,21.46
2022-08-29T07:19:08.847Z,21.64
2022-08-29T07:21:38.507Z,21.74
2022-08-29T07:24:08.108Z,21.63
2022-08-29T07:26:39.044Z,21.66
2022-08-29T07:29:12.051Z,21.73
2022-08-29T07:31:40.314Z,21.77
2022-08-29T07:34:08.745Z,21.58
2022-08-29T07:36:38.528Z,21.86
2022-08-29T07:39:09.254Z,22.06
2022-08-29T07:41:38.545Z,22.11
2022-08-29T07:44:09.685Z,22.17
2022-08-29T07:46:39.493Z,22.37
2022-08-29T07:49:08.585Z,22.22
2022-08-29T07:51:37.402Z,22.33
2022-08-29T07:54:16.775Z,22.36
2022-08-29T07:56:48.088Z,22.41
2022-08-29T07:59:16.435Z,22.24
2022-08-29T08:01:48.612Z,22.53
2022-08-29T08:04:17.195Z,22.50
2022-08-29T08:06:47.971Z,22.49
2022-08-29T08:09:16.427Z,22.34
2022-08-29T08:11:46.198Z,22.46
2022-08-29T08:14:15.367Z,22.06
2022-08-29T08:16:46.110Z,22.15
2022-08-29T08:19:16.573Z,22.03
2022-08-29T08:21:49.791Z,22.32
2022-08-29T08:24:19.919Z,22.53
2022-08-29T08:26:53.021Z,22.52
2022-08-29T08:29:21.265Z,22.81
2022-08-29T08:31:53.215Z,22.82
2022-08-29T08:34:22.988Z,22.90
2022-08-29T08:36:51.087Z,23.01
2022-08-29T08:39:19.406Z,22.82
2022-08-29T08:41:53.712Z,22.75
2022-08-29T08:44:48.855Z,22.51
2022-08-29T08:47:24.678Z,22.56
2022-08-29T08:49:56.186Z,22.54
2022-08-29T08:52:31.424Z,22.35
2022-08-29T08:55:04.386Z,22.55
2022-08-29T08:57:39.712Z,22.58
2022-08-29T09:00:11.661Z,22.63
2022-08-29T09:02:52.649Z,22.73
2022-08-29T09:05:33.011Z,22.88
2022-08-29T09:08:06.984Z,23.33
2022-08-29T09:10:42.520Z,23.64
2022-08-29T09:13:21.642Z,23.60
2022-08-29T09:15:56.359Z,23.39
2022-08-29T09:18:36.174Z,23.19
2022-08-29T09:21:39.526Z,23.23
2022-08-29T09:24:08.750Z,23.16
2022-08-29T09:26:37.316Z,23.42
2022-08-29T09:29:08.908Z,23.34
2022-08-29T09:31:37.760Z,23.51
2022-08-29T09:34:12.136Z,23.57
2022-08-29T09:36:47.789Z,23.60
2022-08-29T09:39:21.014Z,23.54
2022-08-29T09:41:54.638Z,23.44
2022-08-29T09:44:27.576Z,23.32
2022-08-29T09:47:08.418Z,23.68
2022-08-29T09:49:41.572Z,23.79
2022-08-29T09:52:16.496Z,23.97
2022-08-29T09:54:57.403Z,24.00
2022-08-29T09:57:35.231Z,23.64
2022-08-29T10:00:13.702Z,23.52
2022-08-29T10:02:47.509Z,23.54
2022-08-29T10:05:48.239Z,23.86
2022-08-29T10:08:35.491Z,24.38
2022-08-29T10:11:07.787Z,24.60
2022-08-29T10:13:49.070Z,24.69
2022-08-29T10:16:38.847Z,24.49
2022-08-29T10:19:15.253Z,24.77
2022-08-29T10:21:51.638Z,24.88
2022-08-29T10:24:30.775Z,24.77
2022-08-29T10:27:07.256Z,24.70
2022-08-29T10:29:55.674Z,24.64
2022-08-29T10:32:33.704Z,24.89
2022-08-29T10:35:07.850Z,24.80
2022-08-29T10:37:50.248Z,24.37
2022-08-29T10:40:26.107Z,24.31
2022-08-29T10:43:15.013Z,24.70
2022-08-29T10:45:56.407Z,24.97
2022-08-29T10:48:30.354Z,25.24
2022-08-29T10:51:13.266Z,25.15
2022-08-29T10:53:54.208Z,25.42
2022-08-29T10:56:25.895Z,25.53
2022-08-29T10:59:02.255Z,25.06
2022-08-29T11:01:32.562Z,25.11
2022-08-29T11:04:14.076Z,25.43
2022-08-29T11:06:48.119Z,25.58
2022-08-29T11:09:20.717Z,25.77
2022-08-29T11:12:00.435Z,25.57
2022-08-29T11:14:34.651Z,25.50
2022-08-29T11:17:05.740Z,25.74
2022-08-29T11:19:41.839Z,25.84
2022-08-29T11:22:15.458Z,25.72
2022-08-29T11:24:47.282Z,25.61
2022-08-29T11:27:25.529Z,25.89
2022-08-29T11:30:03.574Z,26.26
2022-08-29T11:32:48.190Z,26.27
2022-08-29T11:35:22.097Z,26.37
2022-08-29T11:38:26.286Z,26.53
2022-08-29T11:41:28.296Z,26.59
2022-08-29T11:44:04.437Z,26.82
2022-08-29T11:46:49.287Z,26.97
2022-08-29T11:49:36.676Z,27.33
2022-08-29T11:52:28.817Z,27.43
2022-08-29T11:55:29.255Z,26.84
2022-08-29T11:58:08.808Z,27.17
2022-08-29T12:00:45.906Z,26.73
2022-08-29T12:03:57.586Z,27.10
2022-08-29T12:06:55.791Z,26.99
2022-08-29T12:09:44.024Z,27.47
2022-08-29T12:12:18.362Z,27.29
2022-08-29T12:14:53.149Z,27.33
2022-08-29T12:18:03.807Z,27.64
2022-08-29T12:20:42.989Z,27.80
2022-08-29T12:23:36.221Z,27.86
2022-08-29T12:26:22.069Z,27.60
2022-08-29T12:29:00.748Z,27.85
2022-08-29T12:32:18.065Z,27.59
2022-08-29T12:35:12.066Z,28.00
2022-08-29T12:37:52.675Z,28.12
2022-08-29T12:40:35.816Z,28.20
2022-08-29T12:43:37.429Z,27.98
2022-08-29T12:46:17.386Z,28.18
2022-08-29T12:48:57.504Z,28.03
2022-08-29T12:51:37.659Z,28.64
2022-08-29T12:54:10.271Z,28.34
2022-08-29T12:56:43.707Z,28.26
2022-08-29T12:59:18.661Z,28.51
2022-08-29T13:01:50.271Z,28.87
2022-08-29T13:04:32.553Z,28.79
2022-08-29T13:07:02.596Z,28.93
2022-08-29T13:09:33.695Z,28.96
2022-08-29T13:12:10.469Z,29.28
2022-08-29T13:14:53.491Z,29.47
2022-08-29T13:17:25.231Z,29.50
2022-08-29T13:20:40.374Z,29.13
2022-08-29T13:23:20.400Z,28.67
2022-08-29T13:25:54.570Z,28.62
2022-08-29T13:28:27.075Z,28.89
2022-08-29T13:31:36.297Z,29.31
2022-08-29T13:34:24.564Z,29.27
2022-08-29T13:36:59.434Z,28.98
2022-08-29T13:39:39.276Z,29.18
2022-08-29T13:42:33.054Z,28.91
2022-08-29T13:45:15.419Z,28.47
2022-08-29T13:47:57.124Z,28.40
2022-08-29T13:50:27.083Z,29.03
2022-08-29T13:52:56.572Z,29.12
2022-08-29T13:55:29.335Z,28.93
2022-08-29T13:57:57.859Z,29.42
2022-08-29T14:00:35.218Z,29.59
2022-08-29T14:03:12.278Z,29.74
2022-08-29T14:05:50.154Z,29.36
2022-08-29T14:08:20.412Z,29.41
2022-08-29T14:10:54.147Z,29.16
2022-08-29T14:13:22.774Z,29.06
2022-08-29T14:16:01.267Z,29.17
2022-08-29T14:18:46.753Z,28.83
2022-08-29T14:21:24.925Z,28.55
2022-08-29T14:24:04.921Z,28.50
2022-08-29T14:26:34.505Z,27.97
2022-08-29T14:29:03.572Z,28.36
2022-08-29T14:31:34.664Z,28.58
2022-08-29T14:34:11.710Z,27.91
2022-08-29T14:36:43.544Z,28.04
2022-08-29T14:39:17.564Z,28.03
2022-08-29T14:41:48.737Z,27.93
2022-08-29T14:44:24.232Z,27.85
2022-08-29T14:46:53.169Z,28.03
2022-08-29T14:49:21.761Z,28.27
2022-08-29T14:51:50.063Z,28.16
2022-08-29T14:54:21.162Z,28.20
2022-08-29T14:56:53.667Z,28.00
2022-08-29T14:59:27.702Z,28.07
2022-08-29T15:01:57.550Z,27.21
2022-08-29T15:04:35.328Z,27.76
2022-08-29T15:07:08.787Z,27.93
2022-08-29T15:09:38.398Z,28.13
2022-08-29T15:12:09.312Z,28.27
2022-08-29T15:14:38.042Z,28.52
2022-08-29T15:17:07.891Z,28.27
2022-08-29T15:22:27.069Z,28.18
2022-08-29T15:24:55.876Z,28.16
2022-08-29T15:27:28.681Z,28.25
2022-08-29T15:29:58.417Z,28.26
2022-08-29T15:32:26.921Z,28.35
2022-08-29T15:34:56.168Z,28.46
2022-08-29T15:37:25.100Z,28.34
2022-08-29T15:39:55.085Z,28.53
2022-08-29T15:42:31.131Z,28.18
2022-08-29T15:45:07.710Z,28.75
2022-08-29T15:47:37.449Z,28.65
2022-08-29T15:50:15.745Z,28.08
2022-08-29T15:52:45.461Z,28.33
2022-08-29T15:55:14.016Z,28.57
2022-08-29T15:57:51.989Z,28.82
2022-08-29T16:00:31.167Z,28.74
2022-08-29T16:03:12.624Z,29.26
2022-08-29T16:05:43.002Z,29.24
2022-08-29T16:08:16.647Z,29.52
2022-08-29T16:10:50.274Z,29.56
2022-08-29T16:13:18.946Z,29.98
2022-08-29T16:15:59.243Z,30.14
2022-08-29T16:18:31.445Z,30.33
2022-08-29T16:21:02.682Z,30.40
2022-08-29T16:23:32.168Z,30.63
2022-08-29T16:26:09.227Z,30.32
2022-08-29T16:28:39.891Z,30.23
2022-08-29T16:31:13.711Z,30.30
2022-08-29T16:33:44.121Z,30.37
2022-08-29T16:36:17.636Z,29.75
2022-08-29T16:38:46.944Z,29.66
2022-08-29T16:41:18.842Z,29.27
2022-08-29T16:43:52.204Z,28.83
2022-08-29T16:46:27.286Z,28.65
2022-08-29T16:49:00.690Z,28.19
2022-08-29T16:51:30.215Z,28.07
2022-08-29T16:54:02.533Z,27.70
2022-08-29T16:56:32.977Z,26.97
2022-08-29T16:59:01.836Z,27.07
2022-08-29T17:01:37.059Z,27.10
2022-08-29T17:04:07.544Z,27.17
2022-08-29T17:06:37.568Z,26.96
2022-08-29T17:09:08.859Z,26.88
2022-08-29T17:11:38.415Z,26.88
2022-08-29T17:14:17.354Z,26.61
2022-08-29T17:16:49.526Z,26.59
2022-08-29T17:19:19.855Z,26.59
2022-08-29T17:21:48.067Z,26.38
2022-08-29T17:24:16.403Z,26.26
2022-08-29T17:26:53.883Z,26.34
2022-08-29T17:29:25.813Z,26.24
2022-08-29T17:31:56.497Z,26.25
2022-08-29T17:34:25.755Z,26.18
2022-08-29T17:36:56.589Z,26.22
2022-08-29T17:39:28.295Z,26.14
2022-08-29T17:42:10.435Z,26.11
2022-08-29T17:44:47.873Z,25.90
2022-08-29T17:47:20.622Z,25.96
2022-08-29T17:49:50.045Z,25.85
2022-08-29T17:52:20.799Z,25.83
2022-08-29T17:54:50.118Z,25.78
2022-08-29T17:57:19.095Z,25.73
2022-08-29T17:59:48.853Z,25.89
2022-08-29T18:02:20.738Z,25.61
2022-08-29T18:04:50.543Z,25.67
2022-08-29T18:07:19.121Z,25.80
2022-08-29T18:09:49.284Z,25.58
2022-08-29T18:12:20.388Z,25.51
2022-08-29T18:14:54.291Z,25.60
2022-08-29T18:17:24.770Z,25.52
2022-08-29T18:19:54.958Z,25.50
2022-08-29T18:22:24.167Z,25.56
2022-08-29T18:24:56.046Z,25.30
2022-08-29T18:27:27.713Z,25.33
2022-08-29T18:29:57.284Z,25.36
2022-08-29T18:32:37.179Z,25.29
2022-08-29T18:35:08.519Z,25.30
2022-08-29T18:37:37.130Z,25.24
2022-08-29T18:40:06.112Z,25.17
2022-08-29T18:42:40.953Z,25.06
2022-08-29T18:45:14.332Z,25.16
2022-08-29T18:47:44.485Z,25.24
2022-08-29T18:50:31.465Z,25.13
2022-08-29T18:53:02.779Z,25.22
2022-08-29T18:55:32.221Z,25.03
2022-08-29T18:58:03.934Z,24.93
2022-08-29T19:00:37.728Z,24.89
2022-08-29T19:03:07.645Z,24.84
2022-08-29T19:05:38.681Z,24.77
2022-08-29T19:08:08.913Z,24.74
2022-08-29T19:10:37.302Z,24.72
2022-08-29T19:13:08.154Z,24.53
2022-08-29T19:15:41.421Z,24.73
2022-08-29T19:18:13.950Z,24.67
2022-08-29T19:21:01.429Z,24.53
2022-08-29T19:23:30.726Z,24.52
2022-08-29T19:26:01.289Z,24.53
2022-08-29T19:28:32.931Z,24.44
2022-08-29T19:31:09.873Z,24.32
2022-08-29T19:33:40.015Z,24.35
2022-08-29T19:36:14.881Z,24.40
2022-08-29T19:38:46.667Z,24.21
2022-08-29T19:41:17.867Z,24.29
2022-08-29T19:43:50.885Z,24.21
2022-08-29T19:46:25.424Z,24.06
2022-08-29T19:48:58.126Z,24.19
2022-08-29T19:51:29.805Z,24.18
2022-08-29T19:54:01.665Z,24.14
2022-08-29T19:56:33.376Z,24.10
2022-08-29T19:59:02.537Z,24.12
2022-08-29T20:01:31.934Z,24.27
2022-08-29T20:04:06.726Z,24.16
2022-08-29T20:06:35.342Z,24.22
2022-08-29T20:09:07.517Z,24.42
2022-08-29T20:11:43.682Z,24.26
2022-08-29T20:14:14.061Z,24.29
2022-08-29T20:16:45.530Z,24.30
2022-08-29T20:19:15.907Z,24.24
2022-08-29T20:21:47.808Z,24.10
2022-08-29T20:24:16.730Z,24.08
2022-08-29T20:26:50.564Z,24.12
2022-08-29T20:29:22.594Z,24.00
2022-08-29T20:31:51.975Z,24.01
2022-08-29T20:34:25.170Z,23.85
2022-08-29T20:37:12.763Z,23.89
2022-08-29T20:39:46.547Z,23.71
2022-08-29T20:42:15.249Z,23.79
2022-08-29T20:44:45.672Z,23.67
2022-08-29T20:47:15.413Z,23.70
2022-08-29T20:49:45.940Z,23.66
2022-08-29T20:52:24.373Z,23.61
2022-08-29T20:54:55.363Z,23.49
2022-08-29T20:57:23.574Z,23.51
2022-08-29T20:59:55.095Z,23.61
2022-08-29T21:02:25.069Z,23.32
2022-08-29T21:05:12.650Z,23.51
2022-08-29T21:07:46.585Z,23.59
2022-08-29T21:10:19.079Z,23.52
2022-08-29T21:12:48.805Z,23.60
2022-08-29T21:15:19.837Z,23.64
2022-08-29T21:17:50.536Z,23.45
2022-08-29T21:20:21.650Z,23.47
2022-08-29T21:22:49.879Z,23.48
2022-08-29T21:25:19.948Z,23.46
2022-08-29T21:27:55.977Z,23.50
2022-08-29T21:30:25.531Z,23.56
2022-08-29T21:32:55.547Z,23.60
2022-08-29T21:35:32.860Z,23.68
2022-08-29T21:38:03.162Z,23.64
2022-08-29T21:40:33.645Z,23.83
2022-08-29T21:43:02.324Z,23.51
2022-08-29T21:45:35.303Z,23.34
2022-08-29T21:48:07.275Z,23.53
2022-08-29T21:50:38.681Z,23.44
2022-08-29T21:53:08.022Z,23.35
2022-08-29T21:55:36.349Z,23.35
2022-08-29T21:58:07.074Z,23.15
2022-08-29T22:00:36.975Z,23.20
2022-08-29T22:03:18.068Z,23.18
2022-08-29T22:05:50.302Z,23.26
2022-08-29T22:08:29.777Z,23.28
2022-08-29T22:10:58.698Z,23.38
2022-08-29T22:13:31.755Z,23.13
2022-08-29T22:16:20.081Z,23.01
2022-08-29T22:18:53.525Z,23.12
2022-08-29T22:21:38.100Z,23.20
2022-08-29T22:24:24.016Z,23.13
2022-08-29T22:26:54.582Z,23.05
2022-08-29T22:29:22.780Z,23.13
2022-08-29T22:31:51.385Z,23.22
2022-08-29T22:34:19.903Z,23.12
2022-08-29T22:36:49.444Z,23.01
2022-08-29T22:39:19.135Z,23.04
2022-08-29T22:41:47.842Z,22.96
2022-08-29T22:44:59.884Z,22.99
2022-08-29T22:47:09.184Z,23.02
2022-08-29T22:49:40.665Z,23.01
2022-08-29T22:52:13.102Z,22.89
2022-08-29T22:54:41.659Z,22.86
2022-08-29T22:57:12.589Z,22.90
2022-08-29T22:59:42.615Z,22.82
2022-08-29T23:02:12.360Z,22.70
2022-08-29T23:04:42.260Z,22.80
2022-08-29T23:07:12.357Z,22.80
2022-08-29T23:09:42.787Z,22.72
2022-08-29T23:12:12.745Z,22.85
2022-08-29T23:14:43.468Z,22.72
2022-08-29T23:17:11.587Z,22.91
2022-08-29T23:19:41.390Z,22.86
2022-08-29T23:22:13.467Z,22.75
2022-08-29T23:24:53.797Z,22.82
2022-08-29T23:27:30.875Z,22.69
2022-08-29T23:30:00.050Z,22.54
2022-08-29T23:32:31.322Z,22.49
2022-08-29T23:34:59.465Z,22.38
2022-08-29T23:37:29.929Z,22.23
2022-08-29T23:39:59.782Z,22.42
2022-08-29T23:42:29.293Z,22.28
2022-08-29T23:44:58.859Z,22.07
2022-08-29T23:47:28.575Z,21.83
2022-08-29T23:49:57.488Z,22.30
2022-08-29T23:52:26.700Z,21.95
2022-08-29T23:54:57.025Z,21.96
2022-08-29T23:57:26.162Z,21.93
